sensor_id;sensor_type;location;lat;lon;timestamp;temperature;humidity
13198;DHT22;6664;52.514;13.440;2022-09-29T05:41:10;9.30;80.30
13198;DHT22;6664;52.514;13.440;2022-09-29T05:47:25;9.40;80.00
13198;DHT22;6664;52.514;13.440;2022-09-29T05:49:55;9.50;79.80
13198;DHT22;6664;52.514;13.440;2022-09-29T05:52:22;9.60;79.70
13198;DHT22;6664;52.514;13.440;2022-09-29T05:54:49;9.70;79.50
13198;DHT22;6664;52.514;13.440;2022-09-29T05:57:18;9.70;78.80
13198;DHT22;6664;52.514;13.440;2022-09-29T05:59:46;9.80;78.50
13198;DHT22;6664;52.514;13.440;2022-09-29T06:02:13;9.80;78.10
13198;DHT22;6664;52.514;13.440;2022-09-29T06:04:41;9.90;77.80
13198;DHT22;6664;52.514;13.440;2022-09-29T06:07:08;9.90;77.60
13198;DHT22;6664;52.514;13.440;2022-09-29T06:09:35;10.00;76.00
13198;DHT22;6664;52.514;13.440;2022-09-29T06:12:02;10.10;75.80
13198;DHT22;6664;52.514;13.440;2022-09-29T06:14:29;10.10;75.30
13198;DHT22;6664;52.514;13.440;2022-09-29T06:16:56;10.20;74.70
13198;DHT22;6664;52.514;13.440;2022-09-29T06:19:23;10.10;74.20
13198;DHT22;6664;52.514;13.440;2022-09-29T06:21:49;10.20;73.90
13198;DHT22;6664;52.514;13.440;2022-09-29T06:24:16;10.20;73.40
13198;DHT22;6664;52.514;13.440;2022-09-29T06:26:45;10.20;72.80
13198;DHT22;6664;52.514;13.440;2022-09-29T06:29:17;10.40;73.30
13198;DHT22;6664;52.514;13.440;2022-09-29T06:31:44;10.40;72.60
13198;DHT22;6664;52.514;13.440;2022-09-29T06:34:11;10.40;72.10
13198;DHT22;6664;52.514;13.440;2022-09-29T06:36:39;10.40;71.90
13198;DHT22;6664;52.514;13.440;2022-09-29T06:39:25;10.50;71.50
13198;DHT22;6664;52.514;13.440;2022-09-29T06:41:52;10.60;71.10
13198;DHT22;6664;52.514;13.440;2022-09-29T06:44:24;10.60;70.60
13198;DHT22;6664;52.514;13.440;2022-09-29T06:46:53;10.70;70.40
13198;DHT22;6664;52.514;13.440;2022-09-29T06:49:21;10.70;69.60
13198;DHT22;6664;52.514;13.440;2022-09-29T06:51:50;10.80;69.60
13198;DHT22;6664;52.514;13.440;2022-09-29T06:54:20;10.90;69.00
13198;DHT22;6664;52.514;13.440;2022-09-29T06:56:52;10.90;68.20
13198;DHT22;6664;52.514;13.440;2022-09-29T06:59:25;10.90;68.40
13198;DHT22;6664;52.514;13.440;2022-09-29T07:01:51;10.80;68.10
13198;DHT22;6664;52.514;13.440;2022-09-29T07:04:19;10.80;68.00
13198;DHT22;6664;52.514;13.440;2022-09-29T07:06:48;10.90;68.00
13198;DHT22;6664;52.514;13.440;2022-09-29T07:09:15;10.90;67.60
13198;DHT22;6664;52.514;13.440;2022-09-29T07:11:50;11.00;67.10
13198;DHT22;6664;52.514;13.440;2022-09-29T07:14:21;10.90;66.50
13198;DHT22;6664;52.514;13.440;2022-09-29T07:16:48;10.90;66.40
13198;DHT22;6664;52.514;13.440;2022-09-29T07:19:19;10.90;65.90
13198;DHT22;6664;52.514;13.440;2022-09-29T07:21:48;11.10;65.80
13198;DHT22;6664;52.514;13.440;2022-09-29T07:24:15;11.10;65.10
13198;DHT22;6664;52.514;13.440;2022-09-29T07:26:44;11.20;64.80
13198;DHT22;6664;52.514;13.440;2022-09-29T07:29:13;11.20;64.80
13198;DHT22;6664;52.514;13.440;2022-09-29T07:31:42;11.30;64.30
13198;DHT22;6664;52.514;13.440;2022-09-29T07:34:18;11.20;63.70
13198;DHT22;6664;52.514;13.440;2022-09-29T07:36:45;11.20;63.60
13198;DHT22;6664;52.514;13.440;2022-09-29T07:39:12;11.10;63.90
13198;DHT22;6664;52.514;13.440;2022-09-29T07:41:41;11.30;63.70
13198;DHT22;6664;52.514;13.440;2022-09-29T07:44:08;11.30;63.00
13198;DHT22;6664;52.514;13.440;2022-09-29T07:46:35;11.30;63.10
13198;DHT22;6664;52.514;13.440;2022-09-29T07:49:02;11.40;63.20
13198;DHT22;6664;52.514;13.440;2022-09-29T07:51:29;11.50;62.90
13198;DHT22;6664;52.514;13.440;2022-09-29T07:54:00;11.60;62.20
13198;DHT22;6664;52.514;13.440;2022-09-29T07:56:28;11.60;61.90
13198;DHT22;6664;52.514;13.440;2022-09-29T07:58:55;11.70;61.60
13198;DHT22;6664;52.514;13.440;2022-09-29T08:01:24;11.90;61.60
13198;DHT22;6664;52.514;13.440;2022-09-29T08:03:54;12.10;60.60
13198;DHT22;6664;52.514;13.440;2022-09-29T08:06:22;12.10;60.20
13198;DHT22;6664;52.514;13.440;2022-09-29T08:08:52;12.30;59.70
13198;DHT22;6664;52.514;13.440;2022-09-29T08:11:35;12.40;58.90
13198;DHT22;6664;52.514;13.440;2022-09-29T08:14:03;12.40;58.80
13198;DHT22;6664;52.514;13.440;2022-09-29T08:16:30;12.50;58.50
13198;DHT22;6664;52.514;13.440;2022-09-29T08:18:59;12.50;58.00
13198;DHT22;6664;52.514;13.440;2022-09-29T08:21:27;12.70;57.80
13198;DHT22;6664;52.514;13.440;2022-09-29T08:23:55;12.80;56.90
13198;DHT22;6664;52.514;13.440;2022-09-29T08:26:22;13.00;56.70
13198;DHT22;6664;52.514;13.440;2022-09-29T08:29:09;13.20;56.10
13198;DHT22;6664;52.514;13.440;2022-09-29T08:31:41;13.40;55.00
13198;DHT22;6664;52.514;13.440;2022-09-29T08:34:09;13.40;54.60
13198;DHT22;6664;52.514;13.440;2022-09-29T08:36:36;13.60;54.60
13198;DHT22;6664;52.514;13.440;2022-09-29T08:39:11;13.70;53.90
13198;DHT22;6664;52.514;13.440;2022-09-29T08:44:53;14.00;52.60
13198;DHT22;6664;52.514;13.440;2022-09-29T08:47:46;14.10;52.00
13198;DHT22;6664;52.514;13.440;2022-09-29T08:50:39;14.20;52.00
13198;DHT22;6664;52.514;13.440;2022-09-29T08:53:18;14.30;50.50
13198;DHT22;6664;52.514;13.440;2022-09-29T08:55:59;14.40;50.90
13198;DHT22;6664;52.514;13.440;2022-09-29T08:58:31;14.50;50.40
13198;DHT22;6664;52.514;13.440;2022-09-29T09:15:15;14.30;50.30
13198;DHT22;6664;52.514;13.440;2022-09-29T09:18:44;14.40;49.90
13198;DHT22;6664;52.514;13.440;2022-09-29T09:21:09;14.50;49.80
13198;DHT22;6664;52.514;13.440;2022-09-29T09:23:54;14.70;49.10
13198;DHT22;6664;52.514;13.440;2022-09-29T09:26:41;14.70;48.80
13198;DHT22;6664;52.514;13.440;2022-09-29T09:29:32;14.80;48.50
13198;DHT22;6664;52.514;13.440;2022-09-29T09:32:12;15.20;47.50
13198;DHT22;6664;52.514;13.440;2022-09-29T09:34:52;15.00;46.40
13198;DHT22;6664;52.514;13.440;2022-09-29T09:37:38;15.30;46.10
13198;DHT22;6664;52.514;13.440;2022-09-29T09:40:19;15.60;46.20
13198;DHT22;6664;52.514;13.440;2022-09-29T09:42:59;15.10;45.60
13198;DHT22;6664;52.514;13.440;2022-09-29T09:45:32;15.10;45.80
13198;DHT22;6664;52.514;13.440;2022-09-29T09:48:11;14.80;46.70
13198;DHT22;6664;52.514;13.440;2022-09-29T09:50:48;14.80;46.90
13198;DHT22;6664;52.514;13.440;2022-09-29T09:53:25;14.90;46.60
13198;DHT22;6664;52.514;13.440;2022-09-29T09:56:21;14.60;47.30
13198;DHT22;6664;52.514;13.440;2022-09-29T10:01:35;13.60;48.70
13198;DHT22;6664;52.514;13.440;2022-09-29T10:04:04;13.50;49.70
13198;DHT22;6664;52.514;13.440;2022-09-29T10:06:33;13.60;50.50
13198;DHT22;6664;52.514;13.440;2022-09-29T10:09:03;13.70;50.60
13198;DHT22;6664;52.514;13.440;2022-09-29T10:11:30;14.00;50.30
13198;DHT22;6664;52.514;13.440;2022-09-29T10:14:13;14.20;50.20
13198;DHT22;6664;52.514;13.440;2022-09-29T10:17:06;14.20;49.20
13198;DHT22;6664;52.514;13.440;2022-09-29T10:19:55;14.60;48.50
13198;DHT22;6664;52.514;13.440;2022-09-29T10:22:23;14.90;47.40
13198;DHT22;6664;52.514;13.440;2022-09-29T10:25:36;15.10;46.20
13198;DHT22;6664;52.514;13.440;2022-09-29T10:27:54;15.50;46.20
13198;DHT22;6664;52.514;13.440;2022-09-29T10:30:30;15.70;44.90
13198;DHT22;6664;52.514;13.440;2022-09-29T10:33:01;16.10;43.50
13198;DHT22;6664;52.514;13.440;2022-09-29T10:35:36;16.50;42.20
13198;DHT22;6664;52.514;13.440;2022-09-29T10:38:25;16.20;41.40
13198;DHT22;6664;52.514;13.440;2022-09-29T10:41:03;16.30;41.30
13198;DHT22;6664;52.514;13.440;2022-09-29T10:43:37;16.20;41.30
13198;DHT22;6664;52.514;13.440;2022-09-29T10:46:19;16.40;40.60
13198;DHT22;6664;52.514;13.440;2022-09-29T10:52:21;16.10;39.60
13198;DHT22;6664;52.514;13.440;2022-09-29T10:54:57;16.20;40.20
13198;DHT22;6664;52.514;13.440;2022-09-29T10:57:26;16.20;38.80
13198;DHT22;6664;52.514;13.440;2022-09-29T10:59:55;16.10;39.40
13198;DHT22;6664;52.514;13.440;2022-09-29T11:02:41;16.40;39.40
13198;DHT22;6664;52.514;13.440;2022-09-29T11:05:18;16.50;38.50
13198;DHT22;6664;52.514;13.440;2022-09-29T11:07:51;16.80;37.80
13198;DHT22;6664;52.514;13.440;2022-09-29T11:10:37;16.80;37.30
13198;DHT22;6664;52.514;13.440;2022-09-29T11:15:48;17.20;36.90
13198;DHT22;6664;52.514;13.440;2022-09-29T11:18:31;17.50;36.10
13198;DHT22;6664;52.514;13.440;2022-09-29T11:34:50;16.20;36.90
13198;DHT22;6664;52.514;13.440;2022-09-29T11:40:17;16.00;37.70
13198;DHT22;6664;52.514;13.440;2022-09-29T11:45:39;15.70;37.20
13198;DHT22;6664;52.514;13.440;2022-09-29T11:56:53;15.60;36.60
13198;DHT22;6664;52.514;13.440;2022-09-29T11:59:36;15.50;37.20
13198;DHT22;6664;52.514;13.440;2022-09-29T12:07:50;15.30;38.70
13198;DHT22;6664;52.514;13.440;2022-09-29T12:16:19;14.90;40.50
13198;DHT22;6664;52.514;13.440;2022-09-29T12:18:48;14.90;41.30
13198;DHT22;6664;52.514;13.440;2022-09-29T12:24:43;14.90;41.60
13198;DHT22;6664;52.514;13.440;2022-09-29T12:27:23;15.10;43.00
13198;DHT22;6664;52.514;13.440;2022-09-29T12:30:00;15.30;41.30
13198;DHT22;6664;52.514;13.440;2022-09-29T12:35:05;15.80;40.50
13198;DHT22;6664;52.514;13.440;2022-09-29T12:37:48;16.00;39.50
13198;DHT22;6664;52.514;13.440;2022-09-29T12:40:25;16.40;36.90
13198;DHT22;6664;52.514;13.440;2022-09-29T12:49:30;19.80;29.70
13198;DHT22;6664;52.514;13.440;2022-09-29T12:52:02;18.90;29.70
13198;DHT22;6664;52.514;13.440;2022-09-29T12:54:51;18.50;30.00
13198;DHT22;6664;52.514;13.440;2022-09-29T12:57:36;18.60;30.50
13198;DHT22;6664;52.514;13.440;2022-09-29T13:00:16;18.90;30.10
13198;DHT22;6664;52.514;13.440;2022-09-29T13:05:58;28.70;20.70
13198;DHT22;6664;52.514;13.440;2022-09-29T13:11:39;41.00;1.00
13198;DHT22;6664;52.514;13.440;2022-09-29T13:17:24;44.50;1.00
13198;DHT22;6664;52.514;13.440;2022-09-29T13:26:28;46.00;1.00
13198;DHT22;6664;52.514;13.440;2022-09-29T13:29:00;36.50;1.00
13198;DHT22;6664;52.514;13.440;2022-09-29T13:31:35;32.20;1.00
13198;DHT22;6664;52.514;13.440;2022-09-29T13:34:15;30.70;1.00
13198;DHT22;6664;52.514;13.440;2022-09-29T13:36:45;28.00;1.40
13198;DHT22;6664;52.514;13.440;2022-09-29T13:39:23;26.00;5.00
13198;DHT22;6664;52.514;13.440;2022-09-29T13:45:15;22.70;12.30
13198;DHT22;6664;52.514;13.440;2022-09-29T13:47:47;21.90;14.10
13198;DHT22;6664;52.514;13.440;2022-09-29T13:50:43;21.00;15.10
13198;DHT22;6664;52.514;13.440;2022-09-29T13:53:34;20.10;16.80
13198;DHT22;6664;52.514;13.440;2022-09-29T13:58:33;19.20;19.40
13198;DHT22;6664;52.514;13.440;2022-09-29T14:01:03;18.90;20.10
13198;DHT22;6664;52.514;13.440;2022-09-29T14:03:39;18.50;20.00
13198;DHT22;6664;52.514;13.440;2022-09-29T14:06:21;18.10;21.30
13198;DHT22;6664;52.514;13.440;2022-09-29T14:12:02;17.30;24.40
13198;DHT22;6664;52.514;13.440;2022-09-29T14:14:36;16.90;26.40
13198;DHT22;6664;52.514;13.440;2022-09-29T14:20:11;16.30;28.30
13198;DHT22;6664;52.514;13.440;2022-09-29T14:30:41;15.70;32.00
13198;DHT22;6664;52.514;13.440;2022-09-29T14:38:46;15.70;35.40
13198;DHT22;6664;52.514;13.440;2022-09-29T14:41:40;15.80;35.00
13198;DHT22;6664;52.514;13.440;2022-09-29T14:44:28;15.90;32.60
13198;DHT22;6664;52.514;13.440;2022-09-29T14:47:50;16.10;30.90
13198;DHT22;6664;52.514;13.440;2022-09-29T15:04:44;16.90;27.00
13198;DHT22;6664;52.514;13.440;2022-09-29T15:07:21;16.80;26.60
13198;DHT22;6664;52.514;13.440;2022-09-29T15:09:52;16.60;26.80
13198;DHT22;6664;52.514;13.440;2022-09-29T15:12:23;16.50;27.30
13198;DHT22;6664;52.514;13.440;2022-09-29T15:14:53;16.50;27.80
13198;DHT22;6664;52.514;13.440;2022-09-29T15:18:08;16.30;28.20
13198;DHT22;6664;52.514;13.440;2022-09-29T15:20:21;16.30;27.90
13198;DHT22;6664;52.514;13.440;2022-09-29T15:25:35;16.10;29.40
13198;DHT22;6664;52.514;13.440;2022-09-29T15:30:42;15.80;30.90
13198;DHT22;6664;52.514;13.440;2022-09-29T15:33:20;15.60;30.30
13198;DHT22;6664;52.514;13.440;2022-09-29T15:35:53;15.40;30.00
13198;DHT22;6664;52.514;13.440;2022-09-29T15:40:56;15.20;31.80
13198;DHT22;6664;52.514;13.440;2022-09-29T15:43:37;15.10;31.80
13198;DHT22;6664;52.514;13.440;2022-09-29T15:51:30;14.80;34.00
13198;DHT22;6664;52.514;13.440;2022-09-29T15:53:57;14.70;34.70
13198;DHT22;6664;52.514;13.440;2022-09-29T15:56:33;14.60;34.60
13198;DHT22;6664;52.514;13.440;2022-09-29T15:59:38;14.50;35.10
13198;DHT22;6664;52.514;13.440;2022-09-29T16:02:18;14.50;35.60
13198;DHT22;6664;52.514;13.440;2022-09-29T16:04:53;14.30;35.30
13198;DHT22;6664;52.514;13.440;2022-09-29T16:07:26;14.00;37.20
13198;DHT22;6664;52.514;13.440;2022-09-29T16:10:02;13.70;38.20
13198;DHT22;6664;52.514;13.440;2022-09-29T16:12:35;13.40;38.60
13198;DHT22;6664;52.514;13.440;2022-09-29T16:15:03;13.20;38.90
13198;DHT22;6664;52.514;13.440;2022-09-29T16:17:30;12.90;39.80
13198;DHT22;6664;52.514;13.440;2022-09-29T16:19:58;12.70;39.80
13198;DHT22;6664;52.514;13.440;2022-09-29T16:22:26;12.50;41.00
13198;DHT22;6664;52.514;13.440;2022-09-29T16:25:19;12.30;41.70
13198;DHT22;6664;52.514;13.440;2022-09-29T16:27:57;12.10;43.00
13198;DHT22;6664;52.514;13.440;2022-09-29T16:30:29;11.80;43.60
13198;DHT22;6664;52.514;13.440;2022-09-29T16:33:03;11.60;44.90
13198;DHT22;6664;52.514;13.440;2022-09-29T16:35:41;11.40;45.30
13198;DHT22;6664;52.514;13.440;2022-09-29T16:38:34;11.20;46.30
13198;DHT22;6664;52.514;13.440;2022-09-29T16:41:26;11.00;47.50
13198;DHT22;6664;52.514;13.440;2022-09-29T16:52:18;10.40;51.30
13198;DHT22;6664;52.514;13.440;2022-09-29T16:54:49;10.20;51.80
13198;DHT22;6664;52.514;13.440;2022-09-29T16:57:25;10.10;52.80
13198;DHT22;6664;52.514;13.440;2022-09-29T16:59:57;10.00;53.40
13198;DHT22;6664;52.514;13.440;2022-09-29T17:02:27;9.90;55.50
13198;DHT22;6664;52.514;13.440;2022-09-29T17:04:55;9.80;56.30
13198;DHT22;6664;52.514;13.440;2022-09-29T17:07:24;9.70;57.50
13198;DHT22;6664;52.514;13.440;2022-09-29T17:09:57;9.50;58.00
13198;DHT22;6664;52.514;13.440;2022-09-29T17:12:29;9.50;59.10
13198;DHT22;6664;52.514;13.440;2022-09-29T17:14:59;9.50;60.30
13198;DHT22;6664;52.514;13.440;2022-09-29T17:17:27;9.40;61.10
13198;DHT22;6664;52.514;13.440;2022-09-29T17:19:56;9.40;62.30
13198;DHT22;6664;52.514;13.440;2022-09-29T17:22:34;9.30;62.60
13198;DHT22;6664;52.514;13.440;2022-09-29T17:25:03;9.20;63.50
13198;DHT22;6664;52.514;13.440;2022-09-29T17:27:32;9.30;65.20
13198;DHT22;6664;52.514;13.440;2022-09-29T17:30:20;9.20;65.60
13198;DHT22;6664;52.514;13.440;2022-09-29T17:32:50;9.10;66.50
13198;DHT22;6664;52.514;13.440;2022-09-29T17:35:21;9.00;67.30
13198;DHT22;6664;52.514;13.440;2022-09-29T17:37:52;9.00;67.50
13198;DHT22;6664;52.514;13.440;2022-09-29T17:40:48;8.90;67.90
13198;DHT22;6664;52.514;13.440;2022-09-29T17:43:17;8.90;68.20
13198;DHT22;6664;52.514;13.440;2022-09-29T17:45:44;8.90;68.30
13198;DHT22;6664;52.514;13.440;2022-09-29T17:48:12;8.90;69.60
13198;DHT22;6664;52.514;13.440;2022-09-29T17:50:45;8.80;70.00
13198;DHT22;6664;52.514;13.440;2022-09-29T17:53:12;8.70;70.30
13198;DHT22;6664;52.514;13.440;2022-09-29T17:55:41;8.70;70.70
13198;DHT22;6664;52.514;13.440;2022-09-29T17:58:12;8.70;71.30
13198;DHT22;6664;52.514;13.440;2022-09-29T18:00:47;8.60;71.60
13198;DHT22;6664;52.514;13.440;2022-09-29T18:03:16;8.50;72.00
13198;DHT22;6664;52.514;13.440;2022-09-29T18:05:49;8.50;72.10
13198;DHT22;6664;52.514;13.440;2022-09-29T18:08:24;8.50;72.50
13198;DHT22;6664;52.514;13.440;2022-09-29T18:10:55;8.50;73.00
13198;DHT22;6664;52.514;13.440;2022-09-29T18:13:24;8.50;73.50
13198;DHT22;6664;52.514;13.440;2022-09-29T18:15:54;8.50;73.90
13198;DHT22;6664;52.514;13.440;2022-09-29T18:18:26;8.40;74.10
13198;DHT22;6664;52.514;13.440;2022-09-29T18:20:53;8.40;74.40
13198;DHT22;6664;52.514;13.440;2022-09-29T18:23:23;8.30;74.60
13198;DHT22;6664;52.514;13.440;2022-09-29T18:25:51;8.30;74.80
13198;DHT22;6664;52.514;13.440;2022-09-29T18:28:18;8.30;75.00
13198;DHT22;6664;52.514;13.440;2022-09-29T18:30:48;8.20;75.50
13198;DHT22;6664;52.514;13.440;2022-09-29T18:33:17;8.20;75.90
13198;DHT22;6664;52.514;13.440;2022-09-29T18:35:51;8.20;76.30
13198;DHT22;6664;52.514;13.440;2022-09-29T18:38:19;8.20;76.70
13198;DHT22;6664;52.514;13.440;2022-09-29T18:40:53;8.10;76.90
13198;DHT22;6664;52.514;13.440;2022-09-29T18:43:24;8.10;77.30
13198;DHT22;6664;52.514;13.440;2022-09-29T18:45:54;8.00;77.60
13198;DHT22;6664;52.514;13.440;2022-09-29T18:48:22;8.10;78.10
13198;DHT22;6664;52.514;13.440;2022-09-29T18:50:53;8.10;78.30
13198;DHT22;6664;52.514;13.440;2022-09-29T18:53:24;8.10;78.60
13198;DHT22;6664;52.514;13.440;2022-09-29T18:55:54;8.10;79.00
13198;DHT22;6664;52.514;13.440;2022-09-29T18:58:23;8.00;78.90
13198;DHT22;6664;52.514;13.440;2022-09-29T19:00:53;7.90;79.40
13198;DHT22;6664;52.514;13.440;2022-09-29T19:03:26;7.90;79.80
13198;DHT22;6664;52.514;13.440;2022-09-29T19:05:54;7.90;80.00
13198;DHT22;6664;52.514;13.440;2022-09-29T19:08:21;7.90;80.10
13198;DHT22;6664;52.514;13.440;2022-09-29T19:10:50;7.90;80.70
13198;DHT22;6664;52.514;13.440;2022-09-29T19:13:17;7.90;81.10
13198;DHT22;6664;52.514;13.440;2022-09-29T19:15:47;7.80;81.10
13198;DHT22;6664;52.514;13.440;2022-09-29T19:18:19;7.80;81.60
13198;DHT22;6664;52.514;13.440;2022-09-29T19:20:54;7.80;81.60
13198;DHT22;6664;52.514;13.440;2022-09-29T19:23:25;7.80;82.30
13198;DHT22;6664;52.514;13.440;2022-09-29T19:25:56;7.80;81.60
13198;DHT22;6664;52.514;13.440;2022-09-29T19:28:27;7.80;82.30
13198;DHT22;6664;52.514;13.440;2022-09-29T19:31:05;7.70;82.10
13198;DHT22;6664;52.514;13.440;2022-09-29T19:33:32;7.70;82.40
13198;DHT22;6664;52.514;13.440;2022-09-29T19:36:03;7.60;82.70
13198;DHT22;6664;52.514;13.440;2022-09-29T19:38:30;7.60;83.00
13198;DHT22;6664;52.514;13.440;2022-09-29T19:41:00;7.60;83.50
13198;DHT22;6664;52.514;13.440;2022-09-29T19:43:27;7.60;83.80
13198;DHT22;6664;52.514;13.440;2022-09-29T19:45:54;7.50;84.00
13198;DHT22;6664;52.514;13.440;2022-09-29T19:48:22;7.60;84.70
13198;DHT22;6664;52.514;13.440;2022-09-29T19:50:58;7.60;84.90
13198;DHT22;6664;52.514;13.440;2022-09-29T19:53:44;7.60;85.10
13198;DHT22;6664;52.514;13.440;2022-09-29T19:56:15;7.50;85.10
13198;DHT22;6664;52.514;13.440;2022-09-29T19:58:42;7.60;85.60
13198;DHT22;6664;52.514;13.440;2022-09-29T20:01:11;7.50;85.60
13198;DHT22;6664;52.514;13.440;2022-09-29T20:03:38;7.50;86.00
13198;DHT22;6664;52.514;13.440;2022-09-29T20:06:08;7.50;86.40
13198;DHT22;6664;52.514;13.440;2022-09-29T20:08:36;7.50;86.40
13198;DHT22;6664;52.514;13.440;2022-09-29T20:11:06;7.50;86.40
13198;DHT22;6664;52.514;13.440;2022-09-29T20:13:37;7.50;86.70
13198;DHT22;6664;52.514;13.440;2022-09-29T20:16:06;7.40;86.80
13198;DHT22;6664;52.514;13.440;2022-09-29T20:18:35;7.40;87.10
13198;DHT22;6664;52.514;13.440;2022-09-29T20:21:08;7.40;87.40
13198;DHT22;6664;52.514;13.440;2022-09-29T20:23:38;7.40;87.60
13198;DHT22;6664;52.514;13.440;2022-09-29T20:26:08;7.40;87.90
13198;DHT22;6664;52.514;13.440;2022-09-29T20:28:38;7.30;87.90
13198;DHT22;6664;52.514;13.440;2022-09-29T20:31:06;7.30;88.10
13198;DHT22;6664;52.514;13.440;2022-09-29T20:33:35;7.40;88.80
13198;DHT22;6664;52.514;13.440;2022-09-29T20:36:02;7.30;88.70
13198;DHT22;6664;52.514;13.440;2022-09-29T20:38:31;7.30;88.90
13198;DHT22;6664;52.514;13.440;2022-09-29T20:41:00;7.30;89.00
13198;DHT22;6664;52.514;13.440;2022-09-29T20:43:30;7.30;89.30
13198;DHT22;6664;52.514;13.440;2022-09-29T20:46:06;7.30;89.70
13198;DHT22;6664;52.514;13.440;2022-09-29T20:48:35;7.20;89.70
13198;DHT22;6664;52.514;13.440;2022-09-29T20:51:04;7.20;90.00
13198;DHT22;6664;52.514;13.440;2022-09-29T20:53:33;7.20;90.00
13198;DHT22;6664;52.514;13.440;2022-09-29T20:56:02;7.20;90.30
13198;DHT22;6664;52.514;13.440;2022-09-29T20:58:31;7.20;90.30
13198;DHT22;6664;52.514;13.440;2022-09-29T21:01:21;7.20;90.40
13198;DHT22;6664;52.514;13.440;2022-09-29T21:04:00;7.20;90.50
13198;DHT22;6664;52.514;13.440;2022-09-29T21:06:35;7.10;90.40
13198;DHT22;6664;52.514;13.440;2022-09-29T21:09:04;7.10;90.50
13198;DHT22;6664;52.514;13.440;2022-09-29T21:11:34;7.10;90.50
13198;DHT22;6664;52.514;13.440;2022-09-29T21:14:09;7.00;90.50
13198;DHT22;6664;52.514;13.440;2022-09-29T21:16:38;7.00;90.60
13198;DHT22;6664;52.514;13.440;2022-09-29T21:19:08;7.00;90.70
13198;DHT22;6664;52.514;13.440;2022-09-29T21:21:38;7.00;90.90
13198;DHT22;6664;52.514;13.440;2022-09-29T21:24:07;7.00;90.90
13198;DHT22;6664;52.514;13.440;2022-09-29T21:26:35;7.00;91.10
13198;DHT22;6664;52.514;13.440;2022-09-29T21:29:04;7.00;91.10
13198;DHT22;6664;52.514;13.440;2022-09-29T21:31:34;6.90;91.20
13198;DHT22;6664;52.514;13.440;2022-09-29T21:34:05;6.90;91.30
13198;DHT22;6664;52.514;13.440;2022-09-29T21:36:34;6.90;91.30
13198;DHT22;6664;52.514;13.440;2022-09-29T21:39:02;6.80;91.30
13198;DHT22;6664;52.514;13.440;2022-09-29T21:41:39;6.80;91.40
13198;DHT22;6664;52.514;13.440;2022-09-29T21:44:17;6.80;91.50
13198;DHT22;6664;52.514;13.440;2022-09-29T21:46:46;6.80;91.60
13198;DHT22;6664;52.514;13.440;2022-09-29T21:49:18;6.80;91.70
13198;DHT22;6664;52.514;13.440;2022-09-29T21:51:47;6.80;91.80
13198;DHT22;6664;52.514;13.440;2022-09-29T21:54:19;6.70;91.90
13198;DHT22;6664;52.514;13.440;2022-09-29T21:56:48;6.70;92.00
13198;DHT22;6664;52.514;13.440;2022-09-29T21:59:17;6.70;92.10
13198;DHT22;6664;52.514;13.440;2022-09-29T22:01:47;6.70;92.10
13198;DHT22;6664;52.514;13.440;2022-09-29T22:04:15;6.60;92.20
13198;DHT22;6664;52.514;13.440;2022-09-29T22:06:42;6.60;92.30
13198;DHT22;6664;52.514;13.440;2022-09-29T22:09:14;6.60;92.30
13198;DHT22;6664;52.514;13.440;2022-09-29T22:11:41;6.60;92.40
13198;DHT22;6664;52.514;13.440;2022-09-29T22:14:12;6.60;92.50
13198;DHT22;6664;52.514;13.440;2022-09-29T22:16:39;6.60;92.60
13198;DHT22;6664;52.514;13.440;2022-09-29T22:19:10;6.50;92.60
13198;DHT22;6664;52.514;13.440;2022-09-29T22:21:49;6.60;92.70
13198;DHT22;6664;52.514;13.440;2022-09-29T22:24:16;6.60;92.90
13198;DHT22;6664;52.514;13.440;2022-09-29T22:26:43;6.50;92.80
13198;DHT22;6664;52.514;13.440;2022-09-29T22:29:10;6.50;93.00
13198;DHT22;6664;52.514;13.440;2022-09-29T22:31:37;6.50;93.10
13198;DHT22;6664;52.514;13.440;2022-09-29T22:34:06;6.50;93.20
13198;DHT22;6664;52.514;13.440;2022-09-29T22:36:36;6.50;93.20
13198;DHT22;6664;52.514;13.440;2022-09-29T22:39:04;6.40;93.20
13198;DHT22;6664;52.514;13.440;2022-09-29T22:41:34;6.50;93.30
13198;DHT22;6664;52.514;13.440;2022-09-29T22:44:05;6.50;93.50
13198;DHT22;6664;52.514;13.440;2022-09-29T22:46:33;6.50;93.60
13198;DHT22;6664;52.514;13.440;2022-09-29T22:49:01;6.40;93.60
13198;DHT22;6664;52.514;13.440;2022-09-29T22:51:27;6.50;93.70
13198;DHT22;6664;52.514;13.440;2022-09-29T22:53:55;6.40;93.80
13198;DHT22;6664;52.514;13.440;2022-09-29T22:56:24;6.50;94.00
13198;DHT22;6664;52.514;13.440;2022-09-29T22:59:02;6.40;93.90
13198;DHT22;6664;52.514;13.440;2022-09-29T23:01:30;6.50;94.10
13198;DHT22;6664;52.514;13.440;2022-09-29T23:03:59;6.50;94.20
13198;DHT22;6664;52.514;13.440;2022-09-29T23:06:28;6.40;94.10
13198;DHT22;6664;52.514;13.440;2022-09-29T23:08:57;6.50;94.30
13198;DHT22;6664;52.514;13.440;2022-09-29T23:11:24;6.40;94.30
13198;DHT22;6664;52.514;13.440;2022-09-29T23:13:51;6.40;94.70
13198;DHT22;6664;52.514;13.440;2022-09-29T23:16:18;6.50;94.50
13198;DHT22;6664;52.514;13.440;2022-09-29T23:18:52;6.50;94.60
13198;DHT22;6664;52.514;13.440;2022-09-29T23:21:20;6.40;94.60
13198;DHT22;6664;52.514;13.440;2022-09-29T23:23:52;6.40;94.70
13198;DHT22;6664;52.514;13.440;2022-09-29T23:26:21;6.50;94.80
13198;DHT22;6664;52.514;13.440;2022-09-29T23:28:49;6.50;94.80
13198;DHT22;6664;52.514;13.440;2022-09-29T23:31:18;6.40;94.70
13198;DHT22;6664;52.514;13.440;2022-09-29T23:33:50;6.40;94.90
13198;DHT22;6664;52.514;13.440;2022-09-29T23:36:20;6.30;94.80
13198;DHT22;6664;52.514;13.440;2022-09-29T23:38:50;6.40;94.90
13198;DHT22;6664;52.514;13.440;2022-09-29T23:41:43;6.30;94.80
13198;DHT22;6664;52.514;13.440;2022-09-29T23:44:13;6.30;95.00
13198;DHT22;6664;52.514;13.440;2022-09-29T23:46:41;6.30;95.00
13198;DHT22;6664;52.514;13.440;2022-09-29T23:49:13;6.30;95.10
13198;DHT22;6664;52.514;13.440;2022-09-29T23:51:43;6.20;95.00
13198;DHT22;6664;52.514;13.440;2022-09-29T23:54:12;6.20;95.20
13198;DHT22;6664;52.514;13.440;2022-09-29T23:56:39;6.20;95.20
13198;DHT22;6664;52.514;13.440;2022-09-29T23:59:06;6.20;95.20
